sensor_id;sensor_type;location;lat;lon;timestamp;pressure;altitude;pressure_sealevel;temperature;humidity
6216;BME280;3141;49.234;9.326;2023-06-24T00:00:10;100534.91;;;19.36;74.80
6216;BME280;3141;49.234;9.326;2023-06-24T00:00:54;100536.56;;;19.37;74.48
6216;BME280;3141;49.234;9.326;2023-06-24T00:01:36;100529.91;;;19.33;74.66
6216;BME280;3141;49.234;9.326;2023-06-24T00:02:20;100538.59;;;19.35;74.58
6216;BME280;3141;49.234;9.326;2023-06-24T00:03:06;100532.25;;;19.36;74.47
6216;BME280;3141;49.234;9.326;2023-06-24T00:03:49;100534.53;;;19.39;74.20
6216;BME280;3141;49.234;9.326;2023-06-24T00:04:35;100539.06;;;19.38;74.24
6216;BME280;3141;49.234;9.326;2023-06-24T00:05:17;100534.91;;;19.36;74.16
6216;BME280;3141;49.234;9.326;2023-06-24T00:06:00;100539.25;;;19.37;74.20
6216;BME280;3141;49.234;9.326;2023-06-24T00:06:45;100540.72;;;19.39;74.07
6216;BME280;3141;49.234;9.326;2023-06-24T00:07:27;100542.75;;;19.37;74.00
6216;BME280;3141;49.234;9.326;2023-06-24T00:08:09;100542.31;;;19.34;74.29
6216;BME280;3141;49.234;9.326;2023-06-24T00:08:52;100542.72;;;19.31;74.78
6216;BME280;3141;49.234;9.326;2023-06-24T00:09:36;100541.50;;;19.19;75.28
6216;BME280;3141;49.234;9.326;2023-06-24T00:10:18;100543.03;;;19.07;75.55
6216;BME280;3141;49.234;9.326;2023-06-24T00:11:02;100530.38;;;19.01;75.68
6216;BME280;3141;49.234;9.326;2023-06-24T00:11:46;100536.56;;;19.01;75.73
6216;BME280;3141;49.234;9.326;2023-06-24T00:12:28;100549.00;;;19.09;75.35
6216;BME280;3141;49.234;9.326;2023-06-24T00:13:10;100537.94;;;19.12;75.15
6216;BME280;3141;49.234;9.326;2023-06-24T00:13:53;100542.91;;;19.15;75.20
6216;BME280;3141;49.234;9.326;2023-06-24T00:14:36;100542.25;;;19.13;75.42
6216;BME280;3141;49.234;9.326;2023-06-24T00:15:19;100542.84;;;19.08;75.57
6216;BME280;3141;49.234;9.326;2023-06-24T00:16:01;100540.16;;;19.08;75.32
6216;BME280;3141;49.234;9.326;2023-06-24T00:16:43;100535.06;;;19.13;75.10
6216;BME280;3141;49.234;9.326;2023-06-24T00:17:26;100537.16;;;19.18;74.98
6216;BME280;3141;49.234;9.326;2023-06-24T00:18:10;100536.16;;;19.19;75.10
6216;BME280;3141;49.234;9.326;2023-06-24T00:18:54;100533.28;;;19.20;75.36
6216;BME280;3141;49.234;9.326;2023-06-24T00:19:40;100535.50;;;19.17;75.34
6216;BME280;3141;49.234;9.326;2023-06-24T00:20:22;100536.16;;;19.19;74.99
6216;BME280;3141;49.234;9.326;2023-06-24T00:21:05;100537.59;;;19.21;74.70
6216;BME280;3141;49.234;9.326;2023-06-24T00:21:51;100540.53;;;19.26;74.49
6216;BME280;3141;49.234;9.326;2023-06-24T00:22:33;100538.91;;;19.25;74.39
6216;BME280;3141;49.234;9.326;2023-06-24T00:23:19;100544.94;;;19.13;75.16
6216;BME280;3141;49.234;9.326;2023-06-24T00:24:06;100540.72;;;19.04;75.80
6216;BME280;3141;49.234;9.326;2023-06-24T00:24:49;100540.06;;;19.02;75.68
6216;BME280;3141;49.234;9.326;2023-06-24T00:25:32;100534.44;;;18.97;75.88
6216;BME280;3141;49.234;9.326;2023-06-24T00:26:14;100537.13;;;18.97;75.92
6216;BME280;3141;49.234;9.326;2023-06-24T00:26:58;100543.50;;;18.96;76.04
6216;BME280;3141;49.234;9.326;2023-06-24T00:27:41;100539.16;;;18.95;76.20
6216;BME280;3141;49.234;9.326;2023-06-24T00:28:24;100539.28;;;18.87;76.39
6216;BME280;3141;49.234;9.326;2023-06-24T00:29:07;100537.63;;;18.86;76.12
6216;BME280;3141;49.234;9.326;2023-06-24T00:29:49;100540.97;;;18.88;76.15
6216;BME280;3141;49.234;9.326;2023-06-24T00:30:31;100534.31;;;18.84;76.23
6216;BME280;3141;49.234;9.326;2023-06-24T00:31:14;100541.22;;;18.78;76.51
6216;BME280;3141;49.234;9.326;2023-06-24T00:31:56;100538.81;;;18.83;76.23
6216;BME280;3141;49.234;9.326;2023-06-24T00:32:38;100539.19;;;18.80;76.28
6216;BME280;3141;49.234;9.326;2023-06-24T00:33:21;100536.06;;;18.77;76.50
6216;BME280;3141;49.234;9.326;2023-06-24T00:34:03;100537.09;;;18.76;76.86
6216;BME280;3141;49.234;9.326;2023-06-24T00:34:46;100538.75;;;18.77;76.82
6216;BME280;3141;49.234;9.326;2023-06-24T00:35:29;100528.69;;;18.79;76.87
6216;BME280;3141;49.234;9.326;2023-06-24T00:36:12;100530.06;;;18.75;76.59
6216;BME280;3141;49.234;9.326;2023-06-24T00:36:54;100526.00;;;18.79;76.60
6216;BME280;3141;49.234;9.326;2023-06-24T00:37:36;100530.31;;;18.80;76.39
6216;BME280;3141;49.234;9.326;2023-06-24T00:38:19;100530.97;;;18.82;76.11
6216;BME280;3141;49.234;9.326;2023-06-24T00:39:02;100529.31;;;18.81;75.96
6216;BME280;3141;49.234;9.326;2023-06-24T00:39:47;100525.81;;;18.80;75.86
6216;BME280;3141;49.234;9.326;2023-06-24T00:40:29;100528.50;;;18.80;75.78
6216;BME280;3141;49.234;9.326;2023-06-24T00:41:12;100535.03;;;18.78;75.82
6216;BME280;3141;49.234;9.326;2023-06-24T00:41:54;100526.38;;;18.76;75.97
6216;BME280;3141;49.234;9.326;2023-06-24T00:42:37;100531.75;;;18.76;75.92
6216;BME280;3141;49.234;9.326;2023-06-24T00:43:19;100533.31;;;18.70;76.30
6216;BME280;3141;49.234;9.326;2023-06-24T00:44:02;100532.66;;;18.68;76.25
6216;BME280;3141;49.234;9.326;2023-06-24T00:44:44;100531.56;;;18.63;76.25
6216;BME280;3141;49.234;9.326;2023-06-24T00:45:27;100534.25;;;18.63;76.47
6216;BME280;3141;49.234;9.326;2023-06-24T00:46:09;100529.00;;;18.55;76.71
6216;BME280;3141;49.234;9.326;2023-06-24T00:46:52;100530.38;;;18.51;76.92
6216;BME280;3141;49.234;9.326;2023-06-24T00:47:34;100525.84;;;18.51;76.69
6216;BME280;3141;49.234;9.326;2023-06-24T00:48:17;100535.91;;;18.64;76.13
6216;BME280;3141;49.234;9.326;2023-06-24T00:49:00;100526.19;;;18.63;75.54
6216;BME280;3141;49.234;9.326;2023-06-24T00:49:44;100525.47;;;18.69;75.31
6216;BME280;3141;49.234;9.326;2023-06-24T00:50:27;100525.47;;;18.69;74.64
6216;BME280;3141;49.234;9.326;2023-06-24T00:51:09;100521.75;;;18.70;74.70
6216;BME280;3141;49.234;9.326;2023-06-24T00:51:52;100529.16;;;18.68;74.92
6216;BME280;3141;49.234;9.326;2023-06-24T00:52:34;100529.16;;;18.68;74.73
6216;BME280;3141;49.234;9.326;2023-06-24T00:53:19;100526.59;;;18.60;75.48
6216;BME280;3141;49.234;9.326;2023-06-24T00:54:02;100528.22;;;18.61;75.29
6216;BME280;3141;49.234;9.326;2023-06-24T00:54:44;100528.03;;;18.62;74.98
6216;BME280;3141;49.234;9.326;2023-06-24T00:55:27;100529.91;;;18.62;75.39
6216;BME280;3141;49.234;9.326;2023-06-24T00:56:11;100536.00;;;18.56;76.04
6216;BME280;3141;49.234;9.326;2023-06-24T00:56:55;100531.03;;;18.53;76.63
6216;BME280;3141;49.234;9.326;2023-06-24T00:57:38;100525.22;;;18.49;77.06
6216;BME280;3141;49.234;9.326;2023-06-24T00:58:22;100530.75;;;18.48;77.23
6216;BME280;3141;49.234;9.326;2023-06-24T00:59:06;100525.84;;;18.51;77.56
6216;BME280;3141;49.234;9.326;2023-06-24T00:59:50;100528.16;;;18.54;76.92
6216;BME280;3141;49.234;9.326;2023-06-24T01:00:35;100530.00;;;18.54;76.67
6216;BME280;3141;49.234;9.326;2023-06-24T01:01:18;100526.97;;;18.57;76.41
6216;BME280;3141;49.234;9.326;2023-06-24T01:02:01;100526.31;;;18.55;76.01
6216;BME280;3141;49.234;9.326;2023-06-24T01:02:44;100531.47;;;18.56;75.85
6216;BME280;3141;49.234;9.326;2023-06-24T01:03:30;100525.00;;;18.51;75.73
6216;BME280;3141;49.234;9.326;2023-06-24T01:04:13;100532.59;;;18.47;75.95
6216;BME280;3141;49.234;9.326;2023-06-24T01:04:55;100532.50;;;18.40;76.46
6216;BME280;3141;49.234;9.326;2023-06-24T01:05:40;100529.81;;;18.40;76.47
6216;BME280;3141;49.234;9.326;2023-06-24T01:06:23;100526.66;;;18.37;77.36
6216;BME280;3141;49.234;9.326;2023-06-24T01:07:05;100528.81;;;18.41;77.40
6216;BME280;3141;49.234;9.326;2023-06-24T01:07:48;100524.75;;;18.46;76.96
6216;BME280;3141;49.234;9.326;2023-06-24T01:08:37;100529.91;;;18.47;76.44
6216;BME280;3141;49.234;9.326;2023-06-24T01:09:20;100524.38;;;18.49;76.37
6216;BME280;3141;49.234;9.326;2023-06-24T01:10:03;100525.13;;;18.42;76.70
6216;BME280;3141;49.234;9.326;2023-06-24T01:10:49;100526.13;;;18.41;76.67
6216;BME280;3141;49.234;9.326;2023-06-24T01:11:32;100517.75;;;18.45;77.05
6216;BME280;3141;49.234;9.326;2023-06-24T01:12:15;100520.56;;;18.43;77.30
6216;BME280;3141;49.234;9.326;2023-06-24T01:12:57;100527.63;;;18.44;77.14
6216;BME280;3141;49.234;9.326;2023-06-24T01:13:40;100522.16;;;18.37;77.87
6216;BME280;3141;49.234;9.326;2023-06-24T01:14:23;100527.50;;;18.37;77.46
6216;BME280;3141;49.234;9.326;2023-06-24T01:15:09;100528.91;;;18.48;76.76
6216;BME280;3141;49.234;9.326;2023-06-24T01:15:52;100524.09;;;18.43;77.09
6216;BME280;3141;49.234;9.326;2023-06-24T01:17:51;100530.81;;;18.39;77.72
6216;BME280;3141;49.234;9.326;2023-06-24T01:18:46;100528.81;;;18.41;78.01
6216;BME280;3141;49.234;9.326;2023-06-24T01:19:49;100530.47;;;18.42;77.49
6216;BME280;3141;49.234;9.326;2023-06-24T01:20:43;100526.59;;;18.45;77.31
6216;BME280;3141;49.234;9.326;2023-06-24T01:21:37;100526.78;;;18.43;77.79
6216;BME280;3141;49.234;9.326;2023-06-24T01:25:13;100519.91;;;18.26;78.70
6216;BME280;3141;49.234;9.326;2023-06-24T01:29:45;100520.47;;;18.36;78.14
6216;BME280;3141;49.234;9.326;2023-06-24T01:31:44;100515.03;;;18.30;78.39
6216;BME280;3141;49.234;9.326;2023-06-24T01:32:34;100512.06;;;18.25;78.56
6216;BME280;3141;49.234;9.326;2023-06-24T01:33:24;100513.91;;;18.24;78.77
6216;BME280;3141;49.234;9.326;2023-06-24T01:34:37;100512.25;;;18.23;79.08
6216;BME280;3141;49.234;9.326;2023-06-24T01:35:26;100512.72;;;18.27;79.04
6216;BME280;3141;49.234;9.326;2023-06-24T01:36:12;100519.53;;;18.29;78.84
6216;BME280;3141;49.234;9.326;2023-06-24T01:37:10;100511.31;;;18.31;78.48
6216;BME280;3141;49.234;9.326;2023-06-24T01:37:55;100515.69;;;18.32;78.58
6216;BME280;3141;49.234;9.326;2023-06-24T01:38:47;100508.66;;;18.31;78.26
6216;BME280;3141;49.234;9.326;2023-06-24T01:39:32;100513.53;;;18.27;78.57
6216;BME280;3141;49.234;9.326;2023-06-24T01:40:22;100510.59;;;18.22;78.63
6216;BME280;3141;49.234;9.326;2023-06-24T01:41:08;100512.34;;;18.30;78.06
6216;BME280;3141;49.234;9.326;2023-06-24T01:41:58;100515.59;;;18.25;78.19
6216;BME280;3141;49.234;9.326;2023-06-24T01:42:43;100518.72;;;18.29;77.69
6216;BME280;3141;49.234;9.326;2023-06-24T01:43:27;100517.50;;;18.31;77.18
6216;BME280;3141;49.234;9.326;2023-06-24T01:44:11;100523.25;;;18.28;76.95
6216;BME280;3141;49.234;9.326;2023-06-24T01:44:56;100516.41;;;18.11;77.38
6216;BME280;3141;49.234;9.326;2023-06-24T01:45:46;100517.97;;;18.06;77.76
6216;BME280;3141;49.234;9.326;2023-06-24T01:46:30;100518.16;;;18.04;77.61
6216;BME280;3141;49.234;9.326;2023-06-24T01:47:17;100523.03;;;18.01;77.72
6216;BME280;3141;49.234;9.326;2023-06-24T01:48:25;100523.69;;;18.03;77.47
6216;BME280;3141;49.234;9.326;2023-06-24T01:49:12;100517.25;;;18.12;76.68
6216;BME280;3141;49.234;9.326;2023-06-24T01:49:58;100527.50;;;18.08;76.55
6216;BME280;3141;49.234;9.326;2023-06-24T01:50:44;100512.91;;;18.11;76.09
6216;BME280;3141;49.234;9.326;2023-06-24T01:51:27;100522.31;;;18.21;75.76
6216;BME280;3141;49.234;9.326;2023-06-24T01:52:11;100523.50;;;18.19;75.55
6216;BME280;3141;49.234;9.326;2023-06-24T01:52:56;100523.34;;;18.20;75.72
6216;BME280;3141;49.234;9.326;2023-06-24T01:53:42;100528.03;;;18.18;75.74
6216;BME280;3141;49.234;9.326;2023-06-24T01:54:26;100521.47;;;18.21;75.34
6216;BME280;3141;49.234;9.326;2023-06-24T01:55:11;100518.34;;;18.17;75.62
6216;BME280;3141;49.234;9.326;2023-06-24T01:55:56;100517.34;;;18.18;75.57
6216;BME280;3141;49.234;9.326;2023-06-24T01:56:41;100513.28;;;18.08;76.18
6216;BME280;3141;49.234;9.326;2023-06-24T01:57:26;100524.16;;;18.06;76.53
6216;BME280;3141;49.234;9.326;2023-06-24T01:58:10;100514.66;;;18.04;76.62
6216;BME280;3141;49.234;9.326;2023-06-24T01:58:55;100517.13;;;18.05;76.88
6216;BME280;3141;49.234;9.326;2023-06-24T01:59:41;100518.72;;;18.00;77.19
6216;BME280;3141;49.234;9.326;2023-06-24T02:00:26;100511.88;;;17.97;77.94
6216;BME280;3141;49.234;9.326;2023-06-24T02:01:08;100517.69;;;18.01;77.63
6216;BME280;3141;49.234;9.326;2023-06-24T02:01:52;100519.16;;;18.03;77.60
6216;BME280;3141;49.234;9.326;2023-06-24T02:02:36;100520.00;;;18.04;77.64
6216;BME280;3141;49.234;9.326;2023-06-24T02:03:19;100519.34;;;18.02;77.76
6216;BME280;3141;49.234;9.326;2023-06-24T02:04:04;100520.00;;;18.04;77.73
6216;BME280;3141;49.234;9.326;2023-06-24T02:04:49;100522.47;;;18.05;77.82
6216;BME280;3141;49.234;9.326;2023-06-24T02:05:36;100526.66;;;18.08;77.84
6216;BME280;3141;49.234;9.326;2023-06-24T02:06:22;100520.47;;;18.07;77.53
6216;BME280;3141;49.234;9.326;2023-06-24T02:07:06;100528.97;;;17.96;76.77
6216;BME280;3141;49.234;9.326;2023-06-24T02:07:51;100527.28;;;17.95;76.87
6216;BME280;3141;49.234;9.326;2023-06-24T02:08:36;100529.75;;;17.97;76.50
6216;BME280;3141;49.234;9.326;2023-06-24T02:09:20;100526.91;;;17.98;76.31
6216;BME280;3141;49.234;9.326;2023-06-24T02:10:04;100528.50;;;17.93;76.39
6216;BME280;3141;49.234;9.326;2023-06-24T02:10:49;100524.78;;;17.94;76.12
6216;BME280;3141;49.234;9.326;2023-06-24T02:11:33;100522.13;;;17.94;75.70
6216;BME280;3141;49.234;9.326;2023-06-24T02:12:17;100523.28;;;17.91;75.84
6216;BME280;3141;49.234;9.326;2023-06-24T02:12:59;100523.13;;;17.93;75.55
6216;BME280;3141;49.234;9.326;2023-06-24T02:13:42;100522.75;;;17.96;75.26
6216;BME280;3141;49.234;9.326;2023-06-24T02:14:27;100520.16;;;17.88;75.65
6216;BME280;3141;49.234;9.326;2023-06-24T02:15:10;100522.06;;;17.79;76.33
6216;BME280;3141;49.234;9.326;2023-06-24T02:15:54;100526.63;;;17.79;76.53
6216;BME280;3141;49.234;9.326;2023-06-24T02:16:38;100525.31;;;17.75;76.80
6216;BME280;3141;49.234;9.326;2023-06-24T02:17:24;100514.03;;;17.79;76.91
6216;BME280;3141;49.234;9.326;2023-06-24T02:18:08;100521.44;;;17.77;76.76
6216;BME280;3141;49.234;9.326;2023-06-24T02:18:51;100521.50;;;17.69;77.36
6216;BME280;3141;49.234;9.326;2023-06-24T02:19:35;100515.59;;;17.59;78.11
6216;BME280;3141;49.234;9.326;2023-06-24T02:20:19;100511.06;;;17.60;77.89
6216;BME280;3141;49.234;9.326;2023-06-24T02:21:04;100514.56;;;17.60;78.30
6216;BME280;3141;49.234;9.326;2023-06-24T02:21:48;100513.09;;;17.58;78.33
6216;BME280;3141;49.234;9.326;2023-06-24T02:22:35;100520.22;;;17.65;77.66
6216;BME280;3141;49.234;9.326;2023-06-24T02:23:19;100515.22;;;17.62;78.10
6216;BME280;3141;49.234;9.326;2023-06-24T02:24:02;100518.25;;;17.59;78.26
6216;BME280;3141;49.234;9.326;2023-06-24T02:24:45;100511.88;;;17.60;78.18
6216;BME280;3141;49.234;9.326;2023-06-24T02:25:28;100513.09;;;17.58;78.50
6216;BME280;3141;49.234;9.326;2023-06-24T02:26:11;100511.25;;;17.58;78.70
6216;BME280;3141;49.234;9.326;2023-06-24T02:26:55;100509.22;;;17.60;78.66
6216;BME280;3141;49.234;9.326;2023-06-24T02:27:38;100502.78;;;17.69;78.05
6216;BME280;3141;49.234;9.326;2023-06-24T02:28:21;100505.81;;;17.66;77.89
6216;BME280;3141;49.234;9.326;2023-06-24T02:29:04;100504.19;;;17.65;77.57
6216;BME280;3141;49.234;9.326;2023-06-24T02:29:47;100503.53;;;17.63;77.29
6216;BME280;3141;49.234;9.326;2023-06-24T02:30:30;100504.03;;;17.59;77.90
6216;BME280;3141;49.234;9.326;2023-06-24T02:31:12;100506.53;;;17.60;77.59
6216;BME280;3141;49.234;9.326;2023-06-24T02:31:56;100509.41;;;17.59;77.43
6216;BME280;3141;49.234;9.326;2023-06-24T02:32:39;100506.91;;;17.57;77.22
6216;BME280;3141;49.234;9.326;2023-06-24T02:33:21;100504.31;;;17.49;77.64
6216;BME280;3141;49.234;9.326;2023-06-24T02:34:03;100503.66;;;17.47;78.10
6216;BME280;3141;49.234;9.326;2023-06-24T02:34:46;100507.63;;;17.51;77.55
6216;BME280;3141;49.234;9.326;2023-06-24T02:35:28;100501.44;;;17.51;77.55
6216;BME280;3141;49.234;9.326;2023-06-24T02:36:11;100499.91;;;17.56;77.02
6216;BME280;3141;49.234;9.326;2023-06-24T02:36:53;100500.75;;;17.57;76.95
6216;BME280;3141;49.234;9.326;2023-06-24T02:37:36;100501.09;;;17.54;77.24
6216;BME280;3141;49.234;9.326;2023-06-24T02:38:18;100501.56;;;17.57;76.95
6216;BME280;3141;49.234;9.326;2023-06-24T02:39:01;100508.13;;;17.55;76.99
6216;BME280;3141;49.234;9.326;2023-06-24T02:39:43;100493.63;;;17.49;77.34
6216;BME280;3141;49.234;9.326;2023-06-24T02:40:26;100507.47;;;17.53;77.15
6216;BME280;3141;49.234;9.326;2023-06-24T02:41:09;100497.59;;;17.53;77.23
6216;BME280;3141;49.234;9.326;2023-06-24T02:41:51;100497.75;;;17.52;76.94
6216;BME280;3141;49.234;9.326;2023-06-24T02:42:33;100495.91;;;17.52;77.09
6216;BME280;3141;49.234;9.326;2023-06-24T02:43:17;100495.91;;;17.52;77.04
6216;BME280;3141;49.234;9.326;2023-06-24T02:43:59;100501.09;;;17.54;76.94
6216;BME280;3141;49.234;9.326;2023-06-24T02:44:42;100506.91;;;17.57;76.57
6216;BME280;3141;49.234;9.326;2023-06-24T02:45:25;100505.53;;;17.61;76.57
6216;BME280;3141;49.234;9.326;2023-06-24T02:46:08;100509.88;;;17.62;76.15
6216;BME280;3141;49.234;9.326;2023-06-24T02:46:53;100508.03;;;17.63;76.49
6216;BME280;3141;49.234;9.326;2023-06-24T02:47:36;100513.66;;;17.53;76.67
6216;BME280;3141;49.234;9.326;2023-06-24T02:48:20;100513.97;;;17.50;76.85
6216;BME280;3141;49.234;9.326;2023-06-24T02:49:03;100507.28;;;17.54;76.63
6216;BME280;3141;49.234;9.326;2023-06-24T02:49:46;100507.16;;;17.48;77.21
6216;BME280;3141;49.234;9.326;2023-06-24T02:50:30;100511.81;;;17.46;77.14
6216;BME280;3141;49.234;9.326;2023-06-24T02:51:14;100510.03;;;17.46;77.32
6216;BME280;3141;49.234;9.326;2023-06-24T02:51:57;100516.19;;;17.47;77.17
6216;BME280;3141;49.234;9.326;2023-06-24T02:52:40;100505.50;;;17.47;77.21
6216;BME280;3141;49.234;9.326;2023-06-24T02:53:22;100507.63;;;17.51;76.96
6216;BME280;3141;49.234;9.326;2023-06-24T02:54:05;100512.69;;;17.46;77.35
6216;BME280;3141;49.234;9.326;2023-06-24T02:54:48;100509.53;;;17.43;77.45
6216;BME280;3141;49.234;9.326;2023-06-24T02:55:32;100505.16;;;17.42;77.34
6216;BME280;3141;49.234;9.326;2023-06-24T02:56:15;100513.56;;;17.39;77.62
6216;BME280;3141;49.234;9.326;2023-06-24T02:57:03;100516.22;;;17.39;77.97
6216;BME280;3141;49.234;9.326;2023-06-24T02:57:46;100505.06;;;17.35;78.14
6216;BME280;3141;49.234;9.326;2023-06-24T02:58:29;100511.44;;;17.34;78.07
6216;BME280;3141;49.234;9.326;2023-06-24T02:59:13;100508.69;;;17.42;77.64
6216;BME280;3141;49.234;9.326;2023-06-24T02:59:55;100511.16;;;17.44;77.50
6216;BME280;3141;49.234;9.326;2023-06-24T03:00:38;100512.50;;;17.48;77.04
6216;BME280;3141;49.234;9.326;2023-06-24T03:01:21;100516.66;;;17.50;76.94
6216;BME280;3141;49.234;9.326;2023-06-24T03:02:09;100519.50;;;17.49;76.57
6216;BME280;3141;49.234;9.326;2023-06-24T03:02:53;100518.53;;;17.42;77.20
6216;BME280;3141;49.234;9.326;2023-06-24T03:03:36;100511.06;;;17.37;77.33
6216;BME280;3141;49.234;9.326;2023-06-24T03:04:19;100522.44;;;17.31;77.35
6216;BME280;3141;49.234;9.326;2023-06-24T03:05:02;100520.97;;;17.28;77.65
6216;BME280;3141;49.234;9.326;2023-06-24T03:05:45;100523.88;;;17.42;77.07
6216;BME280;3141;49.234;9.326;2023-06-24T03:06:31;100521.28;;;17.33;77.50
6216;BME280;3141;49.234;9.326;2023-06-24T03:07:14;100524.13;;;17.32;77.48
6216;BME280;3141;49.234;9.326;2023-06-24T03:07:57;100515.81;;;17.27;77.42
6216;BME280;3141;49.234;9.326;2023-06-24T03:08:40;100520.44;;;17.33;77.25
6216;BME280;3141;49.234;9.326;2023-06-24T03:09:22;100520.13;;;17.28;77.39
6216;BME280;3141;49.234;9.326;2023-06-24T03:10:05;100520.06;;;17.36;76.83
6216;BME280;3141;49.234;9.326;2023-06-24T03:10:48;100519.97;;;17.29;76.68
6216;BME280;3141;49.234;9.326;2023-06-24T03:11:30;100514.78;;;17.28;76.87
6216;BME280;3141;49.234;9.326;2023-06-24T03:12:13;100525.00;;;17.24;77.21
6216;BME280;3141;49.234;9.326;2023-06-24T03:12:55;100519.38;;;17.19;77.16
6216;BME280;3141;49.234;9.326;2023-06-24T03:13:37;100518.69;;;17.25;77.07
6216;BME280;3141;49.234;9.326;2023-06-24T03:14:19;100521.88;;;17.21;77.21
6216;BME280;3141;49.234;9.326;2023-06-24T03:15:02;100522.03;;;17.19;77.22
6216;BME280;3141;49.234;9.326;2023-06-24T03:15:45;100517.00;;;17.24;76.82
6216;BME280;3141;49.234;9.326;2023-06-24T03:16:27;100520.22;;;17.20;76.90
6216;BME280;3141;49.234;9.326;2023-06-24T03:17:09;100521.03;;;17.20;77.00
6216;BME280;3141;49.234;9.326;2023-06-24T03:17:53;100515.69;;;17.20;76.67
6216;BME280;3141;49.234;9.326;2023-06-24T03:18:35;100526.03;;;17.23;76.47
6216;BME280;3141;49.234;9.326;2023-06-24T03:19:18;100526.84;;;17.24;76.63
6216;BME280;3141;49.234;9.326;2023-06-24T03:20:00;100520.88;;;17.22;76.39
6216;BME280;3141;49.234;9.326;2023-06-24T03:20:42;100518.31;;;17.28;75.85
6216;BME280;3141;49.234;9.326;2023-06-24T03:21:25;100523.47;;;17.30;75.57
6216;BME280;3141;49.234;9.326;2023-06-24T03:22:10;100522.81;;;17.28;75.80
6216;BME280;3141;49.234;9.326;2023-06-24T03:22:52;100521.97;;;17.27;75.80
6216;BME280;3141;49.234;9.326;2023-06-24T03:23:35;100523.53;;;17.22;76.00
6216;BME280;3141;49.234;9.326;2023-06-24T03:24:17;100527.28;;;17.13;76.65
6216;BME280;3141;49.234;9.326;2023-06-24T03:24:59;100532.63;;;17.13;77.18
6216;BME280;3141;49.234;9.326;2023-06-24T03:25:42;100527.09;;;17.14;77.04
6216;BME280;3141;49.234;9.326;2023-06-24T03:26:50;100525.78;;;17.10;77.19
6216;BME280;3141;49.234;9.326;2023-06-24T03:27:38;100527.28;;;17.13;77.20
6216;BME280;3141;49.234;9.326;2023-06-24T03:28:20;100522.91;;;17.12;77.05
6216;BME280;3141;49.234;9.326;2023-06-24T03:29:03;100540.63;;;17.13;76.84
6216;BME280;3141;49.234;9.326;2023-06-24T03:29:45;100528.25;;;17.12;77.25
6216;BME280;3141;49.234;9.326;2023-06-24T03:30:27;100530.63;;;17.07;77.16
6216;BME280;3141;49.234;9.326;2023-06-24T03:31:10;100526.97;;;17.08;77.13
6216;BME280;3141;49.234;9.326;2023-06-24T03:31:53;100527.78;;;17.08;77.41
6216;BME280;3141;49.234;9.326;2023-06-24T03:32:35;100529.81;;;17.06;77.85
6216;BME280;3141;49.234;9.326;2023-06-24T03:33:18;100534.09;;;17.15;77.53
6216;BME280;3141;49.234;9.326;2023-06-24T03:34:00;100538.06;;;17.19;77.21
6216;BME280;3141;49.234;9.326;2023-06-24T03:34:43;100530.00;;;17.27;76.55
6216;BME280;3141;49.234;9.326;2023-06-24T03:35:25;100531.97;;;17.33;76.01
6216;BME280;3141;49.234;9.326;2023-06-24T03:36:07;100532.44;;;17.37;76.07
6216;BME280;3141;49.234;9.326;2023-06-24T03:36:49;100536.84;;;17.30;76.65
6216;BME280;3141;49.234;9.326;2023-06-24T03:37:32;100537.53;;;17.24;76.84
6216;BME280;3141;49.234;9.326;2023-06-24T03:38:14;100541.22;;;17.23;76.65
6216;BME280;3141;49.234;9.326;2023-06-24T03:38:56;100532.19;;;17.24;76.80
6216;BME280;3141;49.234;9.326;2023-06-24T03:39:39;100535.88;;;17.23;76.93
6216;BME280;3141;49.234;9.326;2023-06-24T03:40:21;100536.25;;;17.20;77.03
6216;BME280;3141;49.234;9.326;2023-06-24T03:41:04;100536.59;;;17.17;77.35
6216;BME280;3141;49.234;9.326;2023-06-24T03:41:46;100539.91;;;17.19;77.71
6216;BME280;3141;49.234;9.326;2023-06-24T03:42:28;100538.84;;;17.28;76.90
6216;BME280;3141;49.234;9.326;2023-06-24T03:43:11;100544.19;;;17.28;77.04
6216;BME280;3141;49.234;9.326;2023-06-24T03:43:54;100550.75;;;17.25;77.48
6216;BME280;3141;49.234;9.326;2023-06-24T03:44:36;100538.91;;;17.20;78.35
6216;BME280;3141;49.234;9.326;2023-06-24T03:45:18;100544.91;;;17.22;77.90
6216;BME280;3141;49.234;9.326;2023-06-24T03:46:00;100546.38;;;17.24;78.13
6216;BME280;3141;49.234;9.326;2023-06-24T03:46:44;100545.22;;;17.27;78.19
6216;BME280;3141;49.234;9.326;2023-06-24T03:47:26;100542.66;;;17.33;78.11
6216;BME280;3141;49.234;9.326;2023-06-24T03:48:09;100542.78;;;17.40;77.83
6216;BME280;3141;49.234;9.326;2023-06-24T03:48:51;100541.13;;;17.39;78.16
6216;BME280;3141;49.234;9.326;2023-06-24T03:49:33;100545.25;;;17.42;78.24
6216;BME280;3141;49.234;9.326;2023-06-24T03:50:16;100536.59;;;17.40;78.15
6216;BME280;3141;49.234;9.326;2023-06-24T03:50:58;100551.44;;;17.42;78.38
6216;BME280;3141;49.234;9.326;2023-06-24T03:51:40;100542.59;;;17.42;78.17
6216;BME280;3141;49.234;9.326;2023-06-24T03:52:23;100540.75;;;17.42;78.20
6216;BME280;3141;49.234;9.326;2023-06-24T03:53:05;100551.44;;;17.42;78.34
6216;BME280;3141;49.234;9.326;2023-06-24T03:53:48;100550.75;;;17.48;77.76
6216;BME280;3141;49.234;9.326;2023-06-24T03:54:30;100552.72;;;17.54;77.68
6216;BME280;3141;49.234;9.326;2023-06-24T03:55:12;100561.13;;;17.51;78.19
6216;BME280;3141;49.234;9.326;2023-06-24T03:55:55;100552.91;;;17.53;78.18
6216;BME280;3141;49.234;9.326;2023-06-24T03:56:37;100545.06;;;17.51;77.98
6216;BME280;3141;49.234;9.326;2023-06-24T03:57:19;100552.06;;;17.52;77.97
6216;BME280;3141;49.234;9.326;2023-06-24T03:58:03;100560.75;;;17.54;78.12
6216;BME280;3141;49.234;9.326;2023-06-24T03:58:45;100559.09;;;17.53;78.00
6216;BME280;3141;49.234;9.326;2023-06-24T03:59:27;100557.34;;;17.60;77.54
6216;BME280;3141;49.234;9.326;2023-06-24T04:00:10;100554.56;;;17.54;77.63
6216;BME280;3141;49.234;9.326;2023-06-24T04:01:02;100556.72;;;17.58;77.49
6216;BME280;3141;49.234;9.326;2023-06-24T04:01:45;100560.63;;;17.70;76.45
6216;BME280;3141;49.234;9.326;2023-06-24T04:02:27;100554.44;;;17.70;76.03
6216;BME280;3141;49.234;9.326;2023-06-24T04:03:11;100562.28;;;17.71;76.21
6216;BME280;3141;49.234;9.326;2023-06-24T04:03:53;100564.06;;;17.79;75.55
6216;BME280;3141;49.234;9.326;2023-06-24T04:04:36;100557.03;;;17.78;75.22